createdAt,value
2023-03-26T00:01:27.753Z,3.72
2023-03-26T00:03:55.349Z,2.70
2023-03-26T00:06:24.950Z,3.97
2023-03-26T00:08:53.199Z,3.45
2023-03-26T00:11:21.928Z,2.67
2023-03-26T00:13:49.021Z,3.17
2023-03-26T00:16:19.786Z,4.30
2023-03-26T00:21:16.410Z,4.15
2023-03-26T00:23:44.039Z,3.22
2023-03-26T00:26:11.286Z,3.80
2023-03-26T00:28:40.569Z,2.85
2023-03-26T00:31:11.350Z,2.95
2023-03-26T00:36:10.104Z,3.45
2023-03-26T00:38:39.193Z,3.05
2023-03-26T00:41:17.990Z,2.55
2023-03-26T00:43:46.717Z,3.42
2023-03-26T00:46:13.959Z,4.22
2023-03-26T00:48:45.800Z,3.42
2023-03-26T00:51:15.669Z,2.58
2023-03-26T00:53:44.926Z,2.88
2023-03-26T00:56:12.200Z,3.65
2023-03-26T00:58:39.397Z,3.25
2023-03-26T01:01:09.739Z,4.03
2023-03-26T01:03:38.675Z,3.88
2023-03-26T01:06:12.840Z,3.38
2023-03-26T01:08:43.063Z,3.13
2023-03-26T01:11:14.624Z,3.45
2023-03-26T01:13:48.472Z,3.30
2023-03-26T01:16:27.020Z,2.70
2023-03-26T01:18:54.623Z,3.30
2023-03-26T01:21:28.718Z,2.70
2023-03-26T01:23:59.827Z,3.05
2023-03-26T01:26:29.718Z,4.10
2023-03-26T01:29:02.426Z,3.65
2023-03-26T01:32:02.892Z,4.30
2023-03-26T01:34:30.739Z,3.70
2023-03-26T01:37:00.698Z,4.45
2023-03-26T01:39:39.018Z,4.00
2023-03-26T01:42:19.366Z,3.22
2023-03-26T01:44:55.416Z,3.97
2023-03-26T01:47:23.172Z,3.80
2023-03-26T01:49:49.926Z,3.45
2023-03-26T01:52:20.877Z,3.45
2023-03-26T01:54:48.273Z,4.05
2023-03-26T01:57:27.074Z,3.35
2023-03-26T02:00:11.824Z,4.15
2023-03-26T02:02:44.154Z,3.50
2023-03-26T02:05:29.920Z,3.17
2023-03-26T02:08:05.911Z,3.47
2023-03-26T02:10:38.223Z,3.67
2023-03-26T02:13:06.210Z,3.00
2023-03-26T02:15:33.590Z,4.32
2023-03-26T02:18:02.032Z,2.72
2023-03-26T02:20:30.233Z,4.47
2023-03-26T02:22:57.870Z,2.50
2023-03-26T02:25:25.243Z,4.00
2023-03-26T02:27:53.115Z,4.60
2023-03-26T02:30:29.768Z,3.28
2023-03-26T02:33:00.055Z,3.15
2023-03-26T02:35:34.687Z,4.43
2023-03-26T02:38:02.881Z,2.85
2023-03-26T02:40:29.737Z,3.35
2023-03-26T02:42:58.970Z,3.60
2023-03-26T02:45:28.003Z,3.65
2023-03-26T02:48:06.548Z,3.00
2023-03-26T02:50:56.501Z,2.88
2023-03-26T02:53:47.454Z,3.00
2023-03-26T02:59:31.881Z,3.08
2023-03-26T03:02:18.344Z,3.78
2023-03-26T03:04:46.712Z,2.45
2023-03-26T03:07:17.962Z,2.95
2023-03-26T03:09:45.597Z,2.75
2023-03-26T03:12:42.720Z,2.85
2023-03-26T03:15:10.257Z,2.83
2023-03-26T03:17:37.128Z,3.30
2023-03-26T03:20:05.369Z,2.97
2023-03-26T03:22:34.845Z,3.55
2023-03-26T03:25:02.774Z,3.83
2023-03-26T03:27:29.809Z,3.03
2023-03-26T03:30:05.450Z,2.03
2023-03-26T03:32:51.125Z,2.53
2023-03-26T03:35:22.867Z,2.45
2023-03-26T03:37:54.303Z,3.10
2023-03-26T03:40:21.112Z,2.60
2023-03-26T03:42:48.563Z,4.07
2023-03-26T03:45:24.410Z,3.78
2023-03-26T03:48:06.682Z,5.40
2023-03-26T03:50:39.562Z,2.88
2023-03-26T03:53:20.617Z,4.32
2023-03-26T03:55:54.399Z,3.28
2023-03-26T03:58:28.439Z,3.88
2023-03-26T04:01:04.450Z,2.70
2023-03-26T04:04:04.013Z,4.25
2023-03-26T04:06:45.592Z,7.57
2023-03-26T04:09:14.784Z,5.40
2023-03-26T04:11:43.168Z,6.00
2023-03-26T04:14:19.889Z,4.60
2023-03-26T04:17:06.909Z,4.53
2023-03-26T04:19:37.507Z,4.13
2023-03-26T04:22:07.520Z,3.58
2023-03-26T04:24:40.684Z,3.97
2023-03-26T04:27:35.412Z,4.28
2023-03-26T04:30:23.357Z,3.88
2023-03-26T04:33:04.195Z,3.33
2023-03-26T04:35:36.949Z,3.33
2023-03-26T04:38:06.604Z,3.38
2023-03-26T04:40:39.177Z,3.50
2023-03-26T04:43:35.642Z,2.85
2023-03-26T04:46:23.516Z,3.72
2023-03-26T04:49:00.746Z,2.83
2023-03-26T04:51:38.196Z,4.00
2023-03-26T04:54:14.401Z,2.85
2023-03-26T04:56:59.051Z,2.58
2023-03-26T04:59:37.215Z,3.05
2023-03-26T05:02:08.442Z,3.08
2023-03-26T05:04:46.300Z,4.82
2023-03-26T05:07:19.988Z,4.75
2023-03-26T05:09:57.598Z,3.47
2023-03-26T05:12:46.560Z,4.10
2023-03-26T05:15:17.901Z,5.25
2023-03-26T05:17:48.533Z,4.75
2023-03-26T05:20:28.041Z,2.72
2023-03-26T05:22:54.823Z,3.38
2023-03-26T05:25:26.049Z,3.80
2023-03-26T05:27:53.682Z,3.20
2023-03-26T05:30:23.893Z,3.17
2023-03-26T05:32:56.811Z,3.20
2023-03-26T05:35:28.872Z,3.05
2023-03-26T05:37:56.163Z,3.08
2023-03-26T05:40:24.466Z,3.53
2023-03-26T05:42:59.743Z,2.40
2023-03-26T05:45:35.692Z,2.80
2023-03-26T05:48:15.424Z,4.03
2023-03-26T05:50:42.203Z,3.25
2023-03-26T05:53:09.204Z,2.53
2023-03-26T05:55:58.028Z,3.67
2023-03-26T05:58:43.656Z,3.00
2023-03-26T06:01:31.777Z,3.10
2023-03-26T06:04:21.532Z,2.70
2023-03-26T06:07:10.106Z,3.13
2023-03-26T06:09:39.807Z,3.78
2023-03-26T06:12:08.439Z,3.88
2023-03-26T06:14:36.374Z,3.15
2023-03-26T06:17:10.814Z,3.53
2023-03-26T06:20:10.746Z,3.30
2023-03-26T06:25:37.854Z,4.57
2023-03-26T06:28:13.320Z,4.38
2023-03-26T06:31:01.652Z,5.38
2023-03-26T06:33:35.878Z,4.65
2023-03-26T06:36:03.013Z,3.50
2023-03-26T06:38:29.771Z,3.55
2023-03-26T06:41:03.502Z,3.25
2023-03-26T06:43:50.223Z,4.70
2023-03-26T06:46:46.117Z,3.55
2023-03-26T06:49:36.119Z,4.13
2023-03-26T06:52:16.575Z,3.50
2023-03-26T06:55:14.759Z,3.33
2023-03-26T06:58:07.390Z,3.13
2023-03-26T07:00:55.333Z,3.30
2023-03-26T07:03:45.351Z,3.92
2023-03-26T07:06:30.909Z,2.75
2023-03-26T07:09:15.975Z,3.30
2023-03-26T07:12:15.849Z,3.65
2023-03-26T07:15:03.442Z,3.50
2023-03-26T07:17:48.899Z,3.30
2023-03-26T07:20:22.175Z,3.22
2023-03-26T07:22:49.553Z,3.70
2023-03-26T07:25:33.562Z,3.28
2023-03-26T07:29:04.650Z,3.92
2023-03-26T07:31:52.714Z,4.05
2023-03-26T07:34:49.138Z,2.58
2023-03-26T07:37:31.789Z,2.90
2023-03-26T07:40:54.829Z,2.88
2023-03-26T07:43:33.217Z,3.22
2023-03-26T07:46:29.043Z,2.33
2023-03-26T07:49:20.494Z,3.25
2023-03-26T07:52:01.379Z,3.60
2023-03-26T07:54:47.225Z,3.38
2023-03-26T07:57:40.921Z,2.17
2023-03-26T08:00:41.500Z,3.28
2023-03-26T08:06:03.786Z,3.45
2023-03-26T08:09:26.743Z,1.98
2023-03-26T08:12:23.059Z,3.70
2023-03-26T08:15:03.405Z,2.63
2023-03-26T08:17:31.742Z,3.20
2023-03-26T08:20:11.060Z,2.50
2023-03-26T08:22:43.385Z,2.80
2023-03-26T08:25:47.184Z,4.28
2023-03-26T08:28:53.029Z,2.53
2023-03-26T08:31:33.831Z,2.30
2023-03-26T08:34:01.541Z,2.67
2023-03-26T08:36:28.536Z,2.17
2023-03-26T08:38:55.580Z,3.22
2023-03-26T08:41:42.376Z,2.80
2023-03-26T08:44:13.767Z,2.65
2023-03-26T08:46:53.011Z,2.55
2023-03-26T08:50:04.019Z,2.60
2023-03-26T08:52:58.640Z,2.22
2023-03-26T08:55:49.674Z,2.67
2023-03-26T08:58:37.772Z,2.40
2023-03-26T09:01:22.716Z,2.38
2023-03-26T09:04:05.637Z,1.83
2023-03-26T09:06:51.205Z,2.38
2023-03-26T09:09:48.692Z,1.98
2023-03-26T09:12:51.115Z,2.05
2023-03-26T09:15:53.181Z,2.03
2023-03-26T09:18:59.488Z,1.90
2023-03-26T09:21:47.905Z,3.17
2023-03-26T09:24:47.547Z,2.35
2023-03-26T09:27:39.512Z,2.60
2023-03-26T09:30:20.460Z,2.10
2023-03-26T09:33:03.522Z,2.55
2023-03-26T09:35:53.572Z,3.65
2023-03-26T09:38:41.882Z,1.95
2023-03-26T09:41:35.454Z,2.38
2023-03-26T09:44:11.604Z,2.25
2023-03-26T09:47:03.621Z,2.90
2023-03-26T09:49:30.445Z,2.38
2023-03-26T09:52:15.997Z,2.40
2023-03-26T09:54:48.615Z,1.65
2023-03-26T09:57:24.285Z,2.35
2023-03-26T10:00:21.801Z,1.80
2023-03-26T10:03:05.697Z,1.38
2023-03-26T10:06:11.821Z,2.03
2023-03-26T10:09:29.168Z,1.83
2023-03-26T10:12:22.373Z,2.22
2023-03-26T10:15:18.443Z,1.95
2023-03-26T10:18:26.712Z,2.10
2023-03-26T10:21:04.912Z,1.63
2023-03-26T10:23:57.377Z,1.52
2023-03-26T10:26:41.841Z,2.15
2023-03-26T10:29:43.756Z,2.00
2023-03-26T10:32:19.515Z,1.80
2023-03-26T10:35:21.381Z,1.75
2023-03-26T10:38:16.117Z,1.73
2023-03-26T10:41:00.640Z,2.40
2023-03-26T10:43:42.703Z,2.00
2023-03-26T10:46:26.695Z,1.80
2023-03-26T10:49:16.864Z,3.17
2023-03-26T10:52:03.300Z,1.90
2023-03-26T10:55:07.145Z,2.42
2023-03-26T10:57:45.868Z,2.05
2023-03-26T11:00:17.688Z,2.17
2023-03-26T11:03:13.524Z,2.08
2023-03-26T11:05:55.479Z,2.00
2023-03-26T11:08:41.477Z,2.35
2023-03-26T11:11:08.196Z,1.75
2023-03-26T11:13:58.626Z,1.75
2023-03-26T11:16:48.432Z,2.20
2023-03-26T11:19:35.928Z,2.42
2023-03-26T11:22:08.802Z,2.70
2023-03-26T11:24:50.360Z,2.58
2023-03-26T11:27:26.438Z,2.60
2023-03-26T11:30:07.713Z,2.10
2023-03-26T11:32:48.350Z,2.30
2023-03-26T11:35:41.692Z,1.95
2023-03-26T11:38:32.871Z,2.28
2023-03-26T11:41:02.108Z,2.03
2023-03-26T11:43:52.590Z,2.33
2023-03-26T11:46:23.061Z,2.42
2023-03-26T11:48:59.499Z,1.92
2023-03-26T11:51:34.271Z,1.80
2023-03-26T11:54:06.081Z,2.25
2023-03-26T11:56:41.227Z,3.20
2023-03-26T11:59:45.148Z,2.53
2023-03-26T12:02:29.896Z,1.63
2023-03-26T12:05:17.956Z,2.50
2023-03-26T12:07:52.426Z,2.13
2023-03-26T12:10:26.630Z,2.30
2023-03-26T12:13:02.900Z,1.98
2023-03-26T12:15:32.170Z,2.60
2023-03-26T12:18:17.883Z,2.13
2023-03-26T12:20:45.082Z,2.13
2023-03-26T12:23:35.425Z,2.40
2023-03-26T12:26:15.011Z,2.95
2023-03-26T12:28:50.410Z,1.85
2023-03-26T12:31:19.147Z,1.80
2023-03-26T12:34:04.939Z,3.22
2023-03-26T12:36:33.848Z,2.40
2023-03-26T12:40:09.766Z,2.45
2023-03-26T12:44:45.117Z,2.78
2023-03-26T12:45:23.946Z,2.38
2023-03-26T12:48:00.516Z,2.20
2023-03-26T12:50:54.729Z,5.90
2023-03-26T12:53:29.115Z,5.05
2023-03-26T12:56:01.345Z,5.68
2023-03-26T12:58:38.348Z,4.88
2023-03-26T13:01:06.187Z,3.22
2023-03-26T13:03:55.350Z,3.28
2023-03-26T13:06:59.112Z,2.85
2023-03-26T13:09:44.763Z,3.92
2023-03-26T13:12:20.110Z,4.28
2023-03-26T13:15:06.861Z,4.80
2023-03-26T13:17:43.938Z,5.20
2023-03-26T13:20:27.160Z,4.70
2023-03-26T13:25:40.115Z,2.88
2023-03-26T13:28:31.404Z,3.75
2023-03-26T13:31:16.718Z,3.42
2023-03-26T13:33:49.425Z,3.40
2023-03-26T13:36:36.103Z,4.13
2023-03-26T13:39:37.472Z,4.43
2023-03-26T13:42:18.377Z,3.53
2023-03-26T13:45:13.884Z,4.80
2023-03-26T13:47:48.411Z,4.45
2023-03-26T13:50:29.098Z,3.65
2023-03-26T13:53:17.698Z,3.50
2023-03-26T13:55:51.474Z,4.35
2023-03-26T13:58:52.402Z,3.30
2023-03-26T14:01:46.117Z,4.10
2023-03-26T14:04:23.724Z,3.97
2023-03-26T14:06:57.829Z,4.07
2023-03-26T14:09:46.583Z,4.03
2023-03-26T14:12:34.250Z,4.00
2023-03-26T14:15:04.315Z,3.30
2023-03-26T14:17:41.328Z,3.78
2023-03-26T14:20:29.654Z,3.42
2023-03-26T14:23:07.942Z,3.97
2023-03-26T14:25:46.897Z,4.63
2023-03-26T14:28:47.569Z,3.60
2023-03-26T14:31:46.339Z,3.42
2023-03-26T14:34:29.049Z,3.40
2023-03-26T14:37:18.894Z,3.63
2023-03-26T14:40:31.585Z,2.78
2023-03-26T14:43:05.526Z,3.05
2023-03-26T14:45:44.498Z,3.97
2023-03-26T14:48:29.986Z,5.82
2023-03-26T14:51:09.218Z,5.97
2023-03-26T14:53:40.764Z,4.90
2023-03-26T14:56:22.027Z,8.80
2023-03-26T14:59:21.751Z,9.10
2023-03-26T15:02:17.610Z,6.63
2023-03-26T15:05:14.599Z,9.00
2023-03-26T15:08:07.030Z,8.07
2023-03-26T15:11:08.932Z,8.57
2023-03-26T15:16:39.827Z,8.00
2023-03-26T15:19:28.711Z,9.18
2023-03-26T15:22:33.912Z,8.57
2023-03-26T15:25:33.134Z,6.43
2023-03-26T15:28:25.915Z,7.40
2023-03-26T15:31:37.253Z,5.32
2023-03-26T15:34:23.355Z,5.93
2023-03-26T15:36:51.042Z,6.22
2023-03-26T15:40:07.788Z,6.43
2023-03-26T15:43:01.504Z,6.88
2023-03-26T15:45:34.075Z,7.75
2023-03-26T15:48:01.482Z,8.18
2023-03-26T15:50:38.045Z,5.68
2023-03-26T15:53:38.925Z,7.00
2023-03-26T15:56:36.773Z,6.57
2023-03-26T15:59:11.350Z,7.07
2023-03-26T16:02:04.086Z,7.68
2023-03-26T16:04:50.322Z,6.82
2023-03-26T16:07:21.920Z,5.50
2023-03-26T16:10:09.346Z,6.03
2023-03-26T16:13:14.544Z,6.50
2023-03-26T16:15:42.812Z,6.38
2023-03-26T16:18:22.417Z,6.10
2023-03-26T16:20:55.141Z,7.30
2023-03-26T16:23:27.430Z,7.38
2023-03-26T16:25:59.364Z,6.90
2023-03-26T16:28:32.404Z,13.52
2023-03-26T16:31:10.604Z,9.15
2023-03-26T16:34:07.901Z,9.65
2023-03-26T16:36:37.229Z,7.80
2023-03-26T16:39:07.765Z,6.22
2023-03-26T16:41:50.096Z,8.07
2023-03-26T16:44:27.571Z,6.32
2023-03-26T16:47:14.873Z,7.47
2023-03-26T16:50:10.764Z,7.32
2023-03-26T16:52:56.160Z,8.57
2023-03-26T16:55:43.836Z,8.07
2023-03-26T16:58:45.617Z,7.15
2023-03-26T17:01:43.695Z,8.02
2023-03-26T17:04:20.529Z,8.57
2023-03-26T17:07:43.126Z,8.63
2023-03-26T17:10:30.846Z,10.65
2023-03-26T17:13:11.818Z,10.10
2023-03-26T17:15:59.719Z,10.80
2023-03-26T17:18:45.672Z,9.90
2023-03-26T17:21:24.551Z,9.57
2023-03-26T17:24:00.166Z,9.48
2023-03-26T17:26:35.395Z,12.48
2023-03-26T17:29:22.902Z,9.55
2023-03-26T17:32:01.173Z,15.88
2023-03-26T17:34:40.313Z,12.77
2023-03-26T17:37:28.312Z,16.20
2023-03-26T17:39:57.864Z,14.20
2023-03-26T17:42:37.683Z,15.40
2023-03-26T17:45:20.544Z,12.30
2023-03-26T17:47:54.032Z,13.15
2023-03-26T17:50:34.838Z,11.00
2023-03-26T17:53:19.599Z,10.38
2023-03-26T17:55:49.570Z,9.70
2023-03-26T17:58:20.729Z,9.98
2023-03-26T18:00:52.832Z,13.43
2023-03-26T18:03:34.438Z,14.68
2023-03-26T18:06:09.264Z,11.98
2023-03-26T18:08:48.972Z,11.48
2023-03-26T18:11:18.571Z,15.25
2023-03-26T18:13:56.937Z,14.35
2023-03-26T18:16:30.949Z,9.27
2023-03-26T18:19:00.720Z,7.60
2023-03-26T18:21:37.338Z,8.38
2023-03-26T18:24:06.988Z,7.25
2023-03-26T18:26:41.094Z,6.40
2023-03-26T18:29:24.672Z,7.35
2023-03-26T18:31:58.400Z,6.30
2023-03-26T18:34:27.228Z,5.90
2023-03-26T18:37:10.958Z,6.28
2023-03-26T18:39:38.466Z,6.40
2023-03-26T18:42:06.919Z,5.72
2023-03-26T18:44:39.045Z,8.88
2023-03-26T18:47:07.426Z,22.10
2023-03-26T18:49:36.591Z,11.23
2023-03-26T18:52:03.718Z,40.55
2023-03-26T18:54:35.592Z,17.30
2023-03-26T18:57:15.232Z,14.77
2023-03-26T18:59:45.466Z,6.70
2023-03-26T19:02:15.058Z,5.10
2023-03-26T19:04:46.276Z,5.50
2023-03-26T19:07:17.255Z,6.03
2023-03-26T19:09:44.922Z,5.57
2023-03-26T19:12:24.037Z,7.28
2023-03-26T19:15:03.500Z,6.65
2023-03-26T19:17:36.827Z,7.60
2023-03-26T19:20:07.655Z,17.65
2023-03-26T19:25:02.738Z,8.23
2023-03-26T19:27:29.580Z,5.85
2023-03-26T19:29:56.508Z,6.18
2023-03-26T19:32:34.728Z,5.25
2023-03-26T19:35:04.207Z,4.57
2023-03-26T19:37:31.537Z,4.55
2023-03-26T19:40:12.802Z,4.40
2023-03-26T19:42:43.001Z,4.18
2023-03-26T19:45:23.294Z,3.65
2023-03-26T19:48:00.367Z,5.15
2023-03-26T19:50:33.799Z,3.47
2023-03-26T19:53:16.104Z,4.22
2023-03-26T19:55:57.409Z,2.90
2023-03-26T19:58:26.088Z,4.18
2023-03-26T20:00:53.242Z,3.22
2023-03-26T20:03:29.481Z,3.55
2023-03-26T20:05:56.659Z,2.13
2023-03-26T20:08:27.079Z,3.53
2023-03-26T20:10:56.620Z,2.85
2023-03-26T20:13:23.565Z,2.97
2023-03-26T20:18:45.329Z,3.67
2023-03-26T20:21:12.894Z,3.90
2023-03-26T20:23:40.930Z,3.13
2023-03-26T20:26:12.864Z,2.88
2023-03-26T20:28:47.742Z,3.22
2023-03-26T20:31:19.922Z,2.72
2023-03-26T20:33:48.063Z,3.05
2023-03-26T20:36:33.670Z,3.75
2023-03-26T20:39:06.165Z,3.22
2023-03-26T20:41:34.552Z,2.83
2023-03-26T20:44:03.750Z,3.63
2023-03-26T20:46:31.916Z,2.90
2023-03-26T20:48:59.984Z,2.80
2023-03-26T20:51:28.842Z,2.83
2023-03-26T20:53:56.167Z,4.00
2023-03-26T20:56:23.614Z,3.88
2023-03-26T20:59:03.627Z,3.22
2023-03-26T21:01:38.129Z,2.55
2023-03-26T21:04:05.995Z,3.33
2023-03-26T21:06:32.938Z,3.40
2023-03-26T21:09:00.046Z,3.35
2023-03-26T21:11:46.640Z,3.03
2023-03-26T21:14:18.569Z,4.25
2023-03-26T21:16:45.732Z,3.88
2023-03-26T21:19:14.755Z,3.88
2023-03-26T21:21:59.201Z,3.75
2023-03-26T21:24:44.264Z,3.58
2023-03-26T21:27:28.845Z,2.83
2023-03-26T21:29:56.387Z,2.97
2023-03-26T21:32:23.540Z,3.03
2023-03-26T21:34:58.571Z,2.78
2023-03-26T21:37:27.065Z,2.67
2023-03-26T21:39:54.364Z,3.50
2023-03-26T21:42:21.535Z,2.40
2023-03-26T21:44:48.455Z,2.97
2023-03-26T21:47:15.576Z,2.42
2023-03-26T21:49:42.478Z,2.45
2023-03-26T21:52:15.013Z,2.13
2023-03-26T21:54:43.194Z,3.25
2023-03-26T21:57:15.990Z,2.90
2023-03-26T22:00:11.424Z,2.40
2023-03-26T22:03:29.192Z,2.30
2023-03-26T22:06:22.334Z,1.98
2023-03-26T22:08:49.319Z,2.65
2023-03-26T22:11:16.247Z,2.17
2023-03-26T22:13:43.696Z,2.85
2023-03-26T22:16:10.875Z,2.90
2023-03-26T22:18:38.062Z,3.95
2023-03-26T22:21:05.945Z,3.40
2023-03-26T22:23:36.615Z,2.53
2023-03-26T22:26:05.032Z,2.97
2023-03-26T22:28:32.279Z,3.42
2023-03-26T22:30:59.475Z,2.90
2023-03-26T22:33:26.818Z,3.28
2023-03-26T22:35:56.491Z,3.20
2023-03-26T22:38:23.730Z,3.53
2023-03-26T22:40:57.794Z,2.70
2023-03-26T22:43:24.927Z,2.85
2023-03-26T22:45:53.697Z,2.60
2023-03-26T22:48:23.917Z,2.83
2023-03-26T22:51:05.668Z,2.90
2023-03-26T22:53:32.667Z,3.30
2023-03-26T22:56:00.386Z,2.95
2023-03-26T22:58:28.229Z,3.60
2023-03-26T23:01:20.330Z,2.13
2023-03-26T23:03:47.344Z,2.42
2023-03-26T23:06:14.248Z,2.80
2023-03-26T23:08:41.265Z,2.75
2023-03-26T23:11:13.631Z,2.92
2023-03-26T23:13:41.675Z,3.83
2023-03-26T23:16:10.234Z,2.80
2023-03-26T23:18:38.226Z,2.55
2023-03-26T23:21:12.044Z,4.35
2023-03-26T23:23:39.861Z,4.22
2023-03-26T23:26:07.141Z,3.08
2023-03-26T23:28:35.167Z,3.25
2023-03-26T23:31:07.532Z,2.95
2023-03-26T23:33:36.356Z,3.58
2023-03-26T23:36:09.055Z,3.10
2023-03-26T23:38:43.742Z,2.95
2023-03-26T23:41:15.358Z,3.30
2023-03-26T23:43:53.197Z,4.55
2023-03-26T23:46:23.622Z,4.22
2023-03-26T23:48:53.592Z,4.38
2023-03-26T23:51:21.467Z,3.03
2023-03-26T23:53:49.524Z,4.22
2023-03-26T23:56:17.505Z,2.75
2023-03-26T23:58:44.594Z,2.92
